Garneill, Montana
Current Conditions -  °F | °C
As of 6:54 AM on Friday 19 Dec 2014 (Local Time) from KLWT Reporting Station
Clear Clear  
Wind Chill: 20°   Ceiling: Unl
Heat Index: 30°   Visibility: 10mi
Dew Point: 20°   Wind: 13mph
Humidity: 66%   Direction: 220°SW
Pressure: 29.89"   Gusts: NA
Location:  46.75°N, 109.75°W
Report Text: KLWT 191354Z AUTO 22011KT 10SM CLR M01/M07 A2989 RMK AO2 SLP148 T10111067
Loading
Personal Weather Stations






























Interactive Weather Map New forecast layout! Learn more

10-Day Weather Forecast

Advertisements
Track Severe Weather on mobile